Time;durP1;ratioP1;P1;durP2;ratioP2;P2;SDS_P1;SDS_P2;PMS_P1;PMS_P2;Temp;Humidity;BMP_temperature;BMP_pressure;BME280_temperature;BME280_humidity;BME280_pressure;Samples;Min_cycle;Max_cycle;Signal;HPM_P1;HPM_P2
2023/02/15 00:01:14;;;;;;;61.50;28.48;;;5.00;99.90;;;;;;4981690;28;25145;-59
2023/02/15 00:03:39;;;;;;;68.07;28.67;;;5.00;99.90;;;;;;4984511;28;25141;-58
2023/02/15 00:06:05;;;;;;;79.35;32.67;;;5.00;99.90;;;;;;4981789;28;25137;-57
2023/02/15 00:08:31;;;;;;;69.53;30.73;;;4.90;99.90;;;;;;4974384;28;25077;-58
2023/02/15 00:11:49;;;;;;;83.07;32.78;;;4.90;99.90;;;;;;4989247;28;25123;-59
2023/02/15 00:14:23;;;;;;;75.13;30.83;;;4.80;99.90;;;;;;4984291;28;25072;-58
2023/02/15 00:16:51;;;;;;;71.35;30.67;;;4.80;99.90;;;;;;4980587;28;25129;-57
2023/02/15 00:19:18;;;;;;;79.80;30.75;;;4.80;99.90;;;;;;4983342;28;25103;-57
2023/02/15 00:21:45;;;;;;;75.53;31.40;;;4.80;99.90;;;;;;4988648;28;25076;-57
2023/02/15 00:24:12;;;;;;;65.72;28.98;;;4.80;99.90;;;;;;4977707;28;25087;-57
2023/02/15 00:26:40;;;;;;;70.07;27.95;;;4.90;99.90;;;;;;4986917;28;25068;-57
2023/02/15 00:29:05;;;;;;;61.28;27.55;;;4.80;99.90;;;;;;4983142;28;25046;-58
2023/02/15 00:31:32;;;;;;;63.33;28.85;;;4.80;99.90;;;;;;4989247;28;25146;-59
2023/02/15 00:34:03;;;;;;;73.07;28.40;;;4.80;99.90;;;;;;4993517;28;25101;-57
2023/02/15 00:36:29;;;;;;;65.80;27.98;;;4.80;99.90;;;;;;4987701;28;25114;-58
2023/02/15 00:38:55;;;;;;;71.13;29.08;;;4.70;99.90;;;;;;4983956;28;25066;-59
2023/02/15 00:41:21;;;;;;;65.93;28.50;;;4.70;99.90;;;;;;4986590;28;25071;-58
2023/02/15 00:43:46;;;;;;;66.75;29.45;;;4.60;99.90;;;;;;4976590;28;25146;-57
2023/02/15 00:46:12;;;;;;;59.42;28.58;;;4.60;99.90;;;;;;4980652;28;25128;-58
2023/02/15 00:48:37;;;;;;;59.90;27.35;;;4.70;99.90;;;;;;4979139;28;25054;-57
2023/02/15 00:51:03;;;;;;;69.50;28.63;;;4.60;99.90;;;;;;4985890;28;25071;-59
2023/02/15 00:53:29;;;;;;;68.40;29.83;;;4.50;99.90;;;;;;4986973;28;25080;-58
2023/02/15 00:55:55;;;;;;;69.50;29.35;;;4.50;99.90;;;;;;4991020;28;25143;-58
2023/02/15 00:58:21;;;;;;;68.50;27.33;;;4.50;99.90;;;;;;4981189;28;25054;-56
2023/02/15 01:00:47;;;;;;;62.35;27.00;;;4.60;99.90;;;;;;4982710;28;25155;-58
2023/02/15 01:03:15;;;;;;;59.70;27.85;;;4.70;99.90;;;;;;4981015;28;25107;-58
2023/02/15 01:05:41;;;;;;;74.60;29.42;;;4.60;99.90;;;;;;4976813;28;25069;-59
2023/02/15 01:08:06;;;;;;;65.10;27.98;;;4.70;99.90;;;;;;4983097;28;25080;-58
2023/02/15 01:10:34;;;;;;;70.55;27.67;;;4.70;99.90;;;;;;4989409;28;25078;-59
2023/02/15 01:12:59;;;;;;;65.32;27.67;;;4.70;99.90;;;;;;4974163;28;25072;-56
2023/02/15 01:15:25;;;;;;;74.78;28.90;;;4.60;99.90;;;;;;4984743;28;25070;-58
2023/02/15 01:17:53;;;;;;;75.90;29.33;;;4.50;99.90;;;;;;4975781;28;25076;-58
2023/02/15 01:20:21;;;;;;;69.25;29.63;;;4.50;99.90;;;;;;4982644;28;25073;-58
2023/02/15 01:22:49;;;;;;;64.28;27.48;;;4.50;99.90;;;;;;4980925;28;25071;-59
2023/02/15 01:25:15;;;;;;;62.50;29.25;;;4.60;99.90;;;;;;4973368;28;25105;-57
2023/02/15 01:27:41;;;;;;;71.28;28.30;;;4.60;99.90;;;;;;4971043;28;25082;-59
2023/02/15 01:30:07;;;;;;;71.38;27.75;;;4.50;99.90;;;;;;4975900;28;25068;-58
2023/02/15 01:32:33;;;;;;;79.57;30.67;;;4.60;99.90;;;;;;4977422;28;25127;-59
2023/02/15 01:34:58;;;;;;;80.93;30.98;;;4.40;99.90;;;;;;4992091;28;25165;-57
2023/02/15 01:37:24;;;;;;;76.70;30.48;;;4.50;99.90;;;;;;4981882;28;25060;-57
2023/02/15 01:39:49;;;;;;;76.43;30.38;;;4.60;99.90;;;;;;4978444;28;25119;-59
2023/02/15 01:42:21;;;;;;;66.80;29.70;;;4.50;99.90;;;;;;4983436;28;25084;-58
2023/02/15 01:44:47;;;;;;;74.18;29.42;;;4.50;99.90;;;;;;4980219;28;25056;-61
2023/02/15 01:47:38;;;;;;;70.43;30.90;;;4.40;99.90;;;;;;4984637;28;25066;-57
2023/02/15 01:50:18;;;;;;;74.82;31.45;;;4.40;99.90;;;;;;4976452;28;25077;-58
2023/02/15 01:53:01;;;;;;;72.07;29.30;;;4.30;99.90;;;;;;4979511;28;25109;-56
2023/02/15 01:55:50;;;;;;;64.15;28.90;;;4.20;99.90;;;;;;4985844;28;25100;-58
2023/02/15 01:58:15;;;;;;;69.68;29.25;;;4.20;99.90;;;;;;4984725;28;25085;-58
2023/02/15 02:00:41;;;;;;;62.08;28.50;;;4.10;99.90;;;;;;4990668;28;25061;-58
2023/02/15 02:03:07;;;;;;;72.85;30.33;;;4.10;99.90;;;;;;4980455;28;25072;-57
2023/02/15 02:05:33;;;;;;;65.07;30.73;;;4.20;99.90;;;;;;4971108;28;25084;-58
2023/02/15 02:08:01;;;;;;;72.68;30.85;;;4.20;99.90;;;;;;4973602;28;25074;-58
2023/02/15 02:10:27;;;;;;;79.50;30.25;;;4.30;99.90;;;;;;4985954;28;25048;-57
2023/02/15 02:12:57;;;;;;;66.68;29.77;;;4.30;99.90;;;;;;4978864;28;25067;-58
2023/02/15 02:15:54;;;;;;;78.82;30.38;;;4.20;99.90;;;;;;4980264;28;25071;-58
2023/02/15 02:18:57;;;;;;;75.30;29.20;;;4.00;99.90;;;;;;4988637;28;25060;-58
2023/02/15 02:21:41;;;;;;;61.60;28.52;;;4.10;99.90;;;;;;4988608;28;25076;-57
2023/02/15 02:24:38;;;;;;;65.30;28.92;;;4.10;99.90;;;;;;4980949;28;25069;-57
2023/02/15 02:27:23;;;;;;;67.03;29.27;;;4.20;99.90;;;;;;4981242;28;25057;-58
2023/02/15 02:30:02;;;;;;;69.68;27.88;;;4.20;99.90;;;;;;4988363;28;25077;-57
2023/02/15 02:32:52;;;;;;;81.93;30.50;;;4.10;99.90;;;;;;4981623;28;25107;-58
2023/02/15 02:35:41;;;;;;;73.28;30.58;;;4.10;99.90;;;;;;4982040;28;25129;-57
2023/02/15 02:38:42;;;;;;;65.55;30.15;;;4.10;99.90;;;;;;4974362;28;25083;-59
2023/02/15 02:41:20;;;;;;;66.38;30.85;;;4.00;99.90;;;;;;4977150;28;25084;-57
2023/02/15 02:44:02;;;;;;;67.22;28.50;;;4.00;99.90;;;;;;4957969;28;25085;-57
2023/02/15 02:46:34;;;;;;;70.97;30.30;;;3.90;99.90;;;;;;4974824;28;25064;-57
2023/02/15 02:49:01;;;;;;;69.13;28.75;;;3.90;99.90;;;;;;4982201;28;25131;-58
2023/02/15 02:51:26;;;;;;;72.82;30.13;;;4.10;99.90;;;;;;4985248;28;25075;-59
2023/02/15 02:53:56;;;;;;;71.65;31.00;;;4.00;99.90;;;;;;4983219;28;25064;-57
2023/02/15 02:56:42;;;;;;;70.78;29.92;;;4.10;99.90;;;;;;4979814;28;25137;-58
2023/02/15 02:59:16;;;;;;;71.60;31.23;;;4.10;99.90;;;;;;4974508;28;25060;-57
2023/02/15 03:01:48;;;;;;;72.43;30.30;;;4.00;99.90;;;;;;4969775;28;25087;-58
2023/02/15 03:04:19;;;;;;;74.47;30.52;;;4.00;99.90;;;;;;4979011;28;25102;-57
2023/02/15 03:07:10;;;;;;;74.70;30.70;;;4.00;99.90;;;;;;4974628;28;25096;-58
2023/02/15 03:09:41;;;;;;;73.68;30.63;;;3.90;99.90;;;;;;4975910;28;25098;-58
2023/02/15 03:12:09;;;;;;;76.35;29.85;;;4.00;99.90;;;;;;4986962;28;25068;-58
2023/02/15 03:14:36;;;;;;;71.32;32.10;;;3.80;99.90;;;;;;4987783;28;25132;-56
2023/02/15 03:17:03;;;;;;;76.95;31.58;;;3.90;99.90;;;;;;4982709;28;25113;-56
2023/02/15 03:19:34;;;;;;;73.00;30.23;;;3.90;99.90;;;;;;4985617;28;25058;-57
2023/02/15 03:22:21;;;;;;;74.60;29.75;;;3.90;99.90;;;;;;4977353;28;25060;-57
2023/02/15 03:25:06;;;;;;;66.85;29.00;;;3.90;99.90;;;;;;4983909;28;25074;-58
2023/02/15 03:27:37;;;;;;;73.47;28.33;;;3.90;99.90;;;;;;4979234;28;25094;-57
2023/02/15 03:30:05;;;;;;;76.50;30.65;;;3.80;99.90;;;;;;4971910;28;25053;-59
2023/02/15 03:32:33;;;;;;;61.90;27.77;;;3.80;99.90;;;;;;4974241;28;25084;-59
2023/02/15 03:34:59;;;;;;;69.68;30.90;;;3.90;99.90;;;;;;4987396;28;25142;-57
2023/02/15 03:37:32;;;;;;;69.18;29.55;;;3.80;99.90;;;;;;4988255;28;25066;-59
2023/02/15 03:43:04;;;;;;;77.80;30.85;;;3.80;99.90;;;;;;4975130;28;25056;-59
2023/02/15 03:45:32;;;;;;;75.40;31.70;;;3.80;99.90;;;;;;4985763;28;25074;-59
2023/02/15 03:47:59;;;;;;;82.43;32.30;;;3.70;99.90;;;;;;4980141;28;25070;-58
2023/02/15 03:53:16;;;;;;;69.70;30.48;;;3.60;99.90;;;;;;4983263;28;25058;-57
2023/02/15 03:55:47;;;;;;;84.13;34.10;;;3.60;99.90;;;;;;4983993;28;25073;-58
2023/02/15 04:04:01;;;;;;;75.38;32.63;;;3.80;99.90;;;;;;4973446;28;25147;-57
2023/02/15 04:06:26;;;;;;;68.68;33.03;;;3.80;99.90;;;;;;4984438;28;25146;-58
2023/02/15 04:11:36;;;;;;;71.72;30.70;;;3.90;99.90;;;;;;4978098;28;25059;-57
2023/02/15 04:16:02;;;;;;;72.13;31.75;;;3.80;99.90;;;;;;4978211;28;25126;-59
2023/02/15 04:16:47;;;;;;;78.80;30.55;;;3.80;99.90;;;;;;4977175;28;25046;-57
2023/02/15 04:27:24;;;;;;;78.82;30.48;;;3.90;99.90;;;;;;4980403;28;25062;-58
2023/02/15 04:29:50;;;;;;;86.45;32.75;;;3.90;99.90;;;;;;4977412;28;25050;-58
2023/02/15 04:32:15;;;;;;;88.78;33.92;;;4.00;99.90;;;;;;4982241;28;25080;-58
2023/02/15 04:34:41;;;;;;;80.50;31.98;;;4.00;99.90;;;;;;4989641;28;25111;-58
2023/02/15 04:37:06;;;;;;;83.40;32.88;;;4.10;99.90;;;;;;4994086;28;25102;-58
2023/02/15 04:39:32;;;;;;;82.97;32.72;;;4.10;99.90;;;;;;4978279;28;25126;-57
2023/02/15 04:41:57;;;;;;;90.35;32.65;;;3.90;99.90;;;;;;4987539;28;25089;-58
2023/02/15 04:44:23;;;;;;;76.68;31.52;;;3.90;99.90;;;;;;4977951;28;25081;-57
2023/02/15 04:46:49;;;;;;;80.00;32.55;;;3.90;99.90;;;;;;4983396;28;25106;-58
2023/02/15 04:49:14;;;;;;;78.70;32.55;;;4.00;99.90;;;;;;4986982;28;25081;-59
2023/02/15 04:51:40;;;;;;;77.32;31.98;;;4.00;99.90;;;;;;4981636;28;25096;-58
2023/02/15 04:54:05;;;;;;;72.95;31.48;;;4.00;99.90;;;;;;4977499;28;25145;-57
2023/02/15 04:56:32;;;;;;;77.60;31.88;;;3.90;99.90;;;;;;4980448;28;25053;-60
2023/02/15 04:58:58;;;;;;;80.70;31.55;;;3.90;99.90;;;;;;4991185;28;25087;-59
2023/02/15 05:01:24;;;;;;;75.55;31.35;;;3.90;99.90;;;;;;4986358;28;25116;-58
2023/02/15 05:03:49;;;;;;;74.03;33.08;;;3.90;99.90;;;;;;4970264;28;25129;-58
2023/02/15 05:06:15;;;;;;;86.15;32.15;;;3.90;99.90;;;;;;4981242;28;25131;-57
2023/02/15 05:08:40;;;;;;;76.03;32.53;;;3.80;99.90;;;;;;4988499;28;25062;-57
2023/02/15 05:11:06;;;;;;;82.65;32.40;;;3.80;99.90;;;;;;4982405;28;25069;-59
2023/02/15 05:13:31;;;;;;;74.70;31.77;;;3.80;99.90;;;;;;4985421;28;25066;-59
2023/02/15 05:15:57;;;;;;;75.03;31.45;;;3.70;99.90;;;;;;4978390;28;25106;-58
2023/02/15 05:18:22;;;;;;;74.78;31.60;;;3.80;99.90;;;;;;4981977;28;25055;-58
2023/02/15 05:20:49;;;;;;;72.90;32.35;;;3.80;99.90;;;;;;4982412;28;25154;-58
2023/02/15 05:23:14;;;;;;;87.85;32.05;;;3.70;99.90;;;;;;4980105;28;25097;-57
2023/02/15 05:28:26;;;;;;;84.40;33.50;;;3.70;99.90;;;;;;4980952;28;25142;-57
2023/02/15 05:31:14;;;;;;;84.97;33.45;;;3.70;99.90;;;;;;4979676;28;25064;-58
2023/02/15 05:33:40;;;;;;;91.82;33.80;;;3.60;99.90;;;;;;4978039;28;25164;-57
2023/02/15 05:36:06;;;;;;;76.60;32.58;;;3.60;99.90;;;;;;4977458;28;25063;-59
2023/02/15 05:38:33;;;;;;;77.35;33.30;;;3.60;99.90;;;;;;4978324;28;25078;-58
2023/02/15 05:40:58;;;;;;;92.70;36.30;;;3.70;99.90;;;;;;4978046;28;25069;-59
2023/02/15 05:43:25;;;;;;;90.78;35.45;;;3.80;99.90;;;;;;4978668;28;25082;-58
2023/02/15 05:45:54;;;;;;;84.70;34.30;;;3.80;99.90;;;;;;4980596;28;25143;-58
2023/02/15 05:48:21;;;;;;;95.47;35.15;;;3.90;99.90;;;;;;4976743;28;25093;-58
2023/02/15 05:51:07;;;;;;;81.00;31.73;;;3.70;99.90;;;;;;4972422;28;25070;-57
2023/02/15 05:53:35;;;;;;;85.45;33.78;;;3.70;99.90;;;;;;4975811;28;25070;-58
2023/02/15 05:56:02;;;;;;;77.85;31.75;;;3.70;99.90;;;;;;4983335;28;25129;-58
2023/02/15 05:58:31;;;;;;;83.88;33.05;;;3.70;99.90;;;;;;4979697;28;25092;-58
2023/02/15 06:00:56;;;;;;;76.80;31.50;;;3.70;99.90;;;;;;4979327;28;25080;-58
2023/02/15 06:03:25;;;;;;;82.90;34.00;;;3.70;99.90;;;;;;4984864;28;25168;-58
2023/02/15 06:05:51;;;;;;;82.40;34.72;;;3.60;99.90;;;;;;4978608;28;25134;-57
2023/02/15 06:08:16;;;;;;;82.07;32.63;;;3.60;99.90;;;;;;4985431;28;25177;-59
2023/02/15 06:10:42;;;;;;;84.38;33.67;;;3.60;99.90;;;;;;4988931;28;25068;-57
2023/02/15 06:13:07;;;;;;;86.10;34.35;;;3.70;99.90;;;;;;4973672;28;25121;-57
2023/02/15 06:15:33;;;;;;;77.32;32.22;;;3.80;99.90;;;;;;4981885;28;25106;-57
2023/02/15 06:17:59;;;;;;;79.57;32.75;;;3.70;99.90;;;;;;4979166;28;25073;-57
2023/02/15 06:20:24;;;;;;;77.50;32.60;;;3.70;99.90;;;;;;4979958;28;25066;-59
2023/02/15 06:22:50;;;;;;;84.57;33.75;;;3.60;99.90;;;;;;4982911;28;25060;-58
2023/02/15 06:25:16;;;;;;;87.20;31.65;;;3.70;99.90;;;;;;4984900;28;25059;-58
2023/02/15 06:27:42;;;;;;;85.97;33.72;;;3.60;99.90;;;;;;4986189;28;25066;-59
2023/02/15 06:30:09;;;;;;;77.30;34.30;;;3.60;99.90;;;;;;4975813;28;25074;-57
2023/02/15 06:32:35;;;;;;;79.25;31.52;;;3.60;99.90;;;;;;4977969;28;25060;-58
2023/02/15 06:35:00;;;;;;;75.50;30.55;;;3.60;99.90;;;;;;4978834;28;25051;-58
2023/02/15 06:37:26;;;;;;;89.28;33.28;;;3.50;99.90;;;;;;4974812;28;25049;-58
2023/02/15 06:39:52;;;;;;;78.00;32.50;;;3.60;99.90;;;;;;4975248;28;25139;-59
2023/02/15 06:42:18;;;;;;;87.72;32.83;;;3.50;99.90;;;;;;4979620;28;25116;-59
2023/02/15 06:44:44;;;;;;;79.35;30.80;;;3.60;99.90;;;;;;4981904;28;25059;-58
2023/02/15 06:47:10;;;;;;;78.75;32.40;;;3.50;99.90;;;;;;4981233;28;25094;-60
2023/02/15 06:49:36;;;;;;;86.22;31.00;;;3.50;99.90;;;;;;4969339;28;25093;-57
2023/02/15 06:52:01;;;;;;;89.60;32.58;;;3.50;99.90;;;;;;4979114;28;25102;-59
2023/02/15 06:54:27;;;;;;;85.00;34.22;;;3.50;99.90;;;;;;4984453;28;25077;-58
2023/02/15 06:56:52;;;;;;;80.72;32.08;;;3.50;99.90;;;;;;4991546;28;25054;-58
2023/02/15 06:59:18;;;;;;;88.50;32.35;;;3.60;99.90;;;;;;4984048;28;24837;-58
2023/02/15 07:01:43;;;;;;;95.25;33.20;;;3.70;99.90;;;;;;4977806;28;25123;-59
2023/02/15 07:04:09;;;;;;;82.00;31.48;;;3.80;99.90;;;;;;4977126;28;25063;-58
2023/02/15 07:06:35;;;;;;;85.40;33.80;;;3.70;99.90;;;;;;4973218;28;25099;-57
2023/02/15 07:09:01;;;;;;;85.38;33.30;;;3.70;99.90;;;;;;4987808;28;25120;-59
2023/02/15 07:14:11;;;;;;;76.88;32.75;;;3.60;99.90;;;;;;4978522;28;25101;-57
2023/02/15 07:16:37;;;;;;;86.85;34.25;;;3.60;99.90;;;;;;4980753;28;25138;-58
2023/02/15 07:19:02;;;;;;;91.95;37.17;;;3.50;99.90;;;;;;4985503;28;25150;-59
2023/02/15 07:21:28;;;;;;;74.88;33.70;;;3.70;99.90;;;;;;4973303;28;25159;-61
2023/02/15 07:23:56;;;;;;;81.63;32.95;;;3.80;99.90;;;;;;4990547;28;25071;-59
2023/02/15 07:26:22;;;;;;;85.13;34.60;;;3.80;99.90;;;;;;4978949;28;25064;-57
2023/02/15 07:28:48;;;;;;;84.32;32.25;;;3.70;99.90;;;;;;4982310;28;25086;-57
2023/02/15 07:31:13;;;;;;;82.28;33.95;;;3.80;99.90;;;;;;4984392;28;25097;-60
2023/02/15 07:33:39;;;;;;;83.47;32.55;;;3.70;99.90;;;;;;4976227;28;25056;-59
2023/02/15 07:36:05;;;;;;;84.70;32.88;;;3.70;99.90;;;;;;4979341;28;25142;-61
2023/02/15 07:38:34;;;;;;;79.15;34.25;;;3.50;99.90;;;;;;4983626;28;25060;-61
2023/02/15 07:41:01;;;;;;;75.30;30.60;;;3.60;99.90;;;;;;4970644;28;25076;-60
2023/02/15 07:43:29;;;;;;;86.13;33.05;;;3.60;99.90;;;;;;4977065;28;25068;-61
2023/02/15 07:45:54;;;;;;;84.55;33.30;;;3.80;99.90;;;;;;4973710;28;25131;-62
2023/02/15 07:48:20;;;;;;;88.82;34.22;;;3.80;99.90;;;;;;4983391;28;25072;-62
2023/02/15 07:50:45;;;;;;;81.78;35.00;;;3.90;99.90;;;;;;4981049;28;25068;-62
2023/02/15 07:53:11;;;;;;;79.20;33.05;;;4.00;99.90;;;;;;4977334;28;25143;-62
2023/02/15 07:55:36;;;;;;;72.20;32.38;;;4.00;99.90;;;;;;4977592;28;25076;-63
2023/02/15 07:58:02;;;;;;;81.20;32.30;;;4.30;99.90;;;;;;4974637;28;25086;-64
2023/02/15 08:00:29;;;;;;;86.30;33.05;;;4.40;99.90;;;;;;4977880;28;25066;-61
2023/02/15 08:03:14;;;;;;;84.28;35.35;;;4.40;99.90;;;;;;4977716;28;25066;-61
2023/02/15 08:05:42;;;;;;;84.93;33.65;;;4.40;99.90;;;;;;4984157;28;25059;-62
2023/02/15 08:08:08;;;;;;;83.93;33.58;;;4.40;99.90;;;;;;4974641;28;25060;-63
2023/02/15 08:11:25;;;;;;;83.47;34.25;;;4.40;99.90;;;;;;4978837;28;25066;-64
2023/02/15 08:13:32;;;;;;;80.25;32.03;;;4.60;99.90;;;;;;4989279;28;25062;-65
2023/02/15 08:15:58;;;;;;;80.88;32.63;;;4.70;99.90;;;;;;4996329;28;25083;-61
2023/02/15 08:18:23;;;;;;;81.75;34.20;;;4.80;99.90;;;;;;4988881;28;25026;-60
2023/02/15 08:20:50;;;;;;;86.43;33.67;;;4.70;99.90;;;;;;4979895;28;25163;-61
2023/02/15 08:23:15;;;;;;;87.90;35.45;;;4.60;99.90;;;;;;4975905;28;25153;-61
2023/02/15 08:25:41;;;;;;;74.88;31.88;;;4.80;99.90;;;;;;4979084;28;25060;-60
2023/02/15 08:28:06;;;;;;;78.63;33.80;;;4.90;99.90;;;;;;4989063;28;25089;-62
2023/02/15 08:30:32;;;;;;;82.15;33.38;;;5.00;99.90;;;;;;4982499;28;25103;-61
2023/02/15 08:32:58;;;;;;;75.38;32.25;;;5.00;99.90;;;;;;4989477;28;25165;-64
2023/02/15 08:35:23;;;;;;;74.07;34.17;;;5.00;99.90;;;;;;4979466;28;25063;-62
2023/02/15 08:37:49;;;;;;;78.45;34.22;;;5.20;99.90;;;;;;4974678;28;25081;-62
2023/02/15 08:40:15;;;;;;;75.18;33.63;;;5.30;99.90;;;;;;4994795;28;25144;-60
2023/02/15 08:42:41;;;;;;;83.40;34.67;;;5.30;99.90;;;;;;4994393;28;25108;-61
2023/02/15 08:45:07;;;;;;;73.72;29.23;;;5.40;99.90;;;;;;4980801;28;25086;-62
2023/02/15 08:47:32;;;;;;;72.72;30.27;;;5.60;99.90;;;;;;4981806;28;25174;-60
2023/02/15 08:49:58;;;;;;;75.68;32.17;;;5.80;99.90;;;;;;4979539;28;25077;-61
2023/02/15 08:52:23;;;;;;;69.60;31.23;;;5.70;99.90;;;;;;4980845;28;25117;-62
2023/02/15 08:54:49;;;;;;;72.22;31.30;;;5.80;99.90;;;;;;4971260;28;25059;-61
2023/02/15 08:57:14;;;;;;;70.45;30.27;;;5.90;99.90;;;;;;4975947;28;25055;-61
2023/02/15 08:59:40;;;;;;;70.82;30.67;;;5.90;99.90;;;;;;4983108;28;25098;-60
2023/02/15 09:02:05;;;;;;;64.10;29.67;;;5.90;99.90;;;;;;4982378;28;25081;-60
2023/02/15 09:04:31;;;;;;;65.72;28.98;;;5.90;99.90;;;;;;4973900;28;25128;-60
2023/02/15 09:06:57;;;;;;;72.93;31.48;;;5.80;99.90;;;;;;4988833;28;25107;-60
2023/02/15 09:09:22;;;;;;;71.20;30.15;;;5.70;99.90;;;;;;4990909;28;25148;-60
2023/02/15 09:11:50;;;;;;;69.95;31.08;;;5.80;99.90;;;;;;4974292;28;25144;-61
2023/02/15 09:14:21;;;;;;;66.45;30.52;;;5.70;99.90;;;;;;4968144;28;25100;-59
2023/02/15 09:16:49;;;;;;;76.43;31.55;;;5.90;99.90;;;;;;4977925;28;25132;-59
2023/02/15 09:19:17;;;;;;;70.97;30.50;;;5.90;99.90;;;;;;4981696;28;25130;-59
2023/02/15 09:21:42;;;;;;;63.85;28.17;;;5.90;99.90;;;;;;4978450;28;25078;-60
2023/02/15 09:24:11;;;;;;;63.78;28.27;;;6.00;99.90;;;;;;4980103;28;25054;-61
2023/02/15 09:26:40;;;;;;;66.90;29.40;;;6.00;99.90;;;;;;4981278;28;25074;-61
2023/02/15 09:29:06;;;;;;;63.53;28.38;;;5.90;99.90;;;;;;4979815;28;25081;-62
2023/02/15 09:31:36;;;;;;;64.82;27.77;;;5.80;99.90;;;;;;4980283;28;25153;-60
2023/02/15 09:34:02;;;;;;;64.53;29.90;;;5.80;99.90;;;;;;4983314;28;25085;-59
2023/02/15 09:36:31;;;;;;;60.30;28.40;;;5.80;99.90;;;;;;4989794;28;25054;-61
2023/02/15 09:39:13;;;;;;;69.45;29.00;;;5.80;99.90;;;;;;4978956;28;25063;-61
2023/02/15 09:42:03;;;;;;;69.07;30.65;;;5.90;99.90;;;;;;4975831;28;25077;-61
2023/02/15 09:44:58;;;;;;;60.40;28.02;;;6.00;99.90;;;;;;4971228;28;25104;-59
2023/02/15 09:47:48;;;;;;;64.15;27.20;;;6.20;99.90;;;;;;4980664;28;25089;-60
2023/02/15 09:50:32;;;;;;;67.85;29.58;;;6.30;99.90;;;;;;4977590;28;25067;-59
2023/02/15 09:53:07;;;;;;;63.22;28.83;;;6.40;99.90;;;;;;4984598;28;25077;-60
2023/02/15 09:55:48;;;;;;;61.65;28.35;;;6.50;99.90;;;;;;4988131;28;25113;-62
2023/02/15 09:58:28;;;;;;;67.95;29.48;;;6.50;99.90;;;;;;4991971;28;25168;-62
2023/02/15 10:01:34;;;;;;;64.72;30.33;;;6.60;99.90;;;;;;4989780;28;25083;-61
2023/02/15 10:04:09;;;;;;;60.10;27.35;;;6.70;99.90;;;;;;4984306;28;25157;-61
2023/02/15 10:06:56;;;;;;;64.82;30.00;;;6.90;99.90;;;;;;4979858;28;25084;-62
2023/02/15 10:09:50;;;;;;;65.95;29.50;;;7.10;99.90;;;;;;4976779;28;25113;-60
2023/02/15 10:12:27;;;;;;;57.47;28.60;;;7.20;99.90;;;;;;4973643;28;25125;-61
2023/02/15 10:15:11;;;;;;;60.60;28.77;;;7.30;99.90;;;;;;4972149;28;25079;-63
2023/02/15 10:18:14;;;;;;;59.88;29.15;;;7.40;99.90;;;;;;4975530;28;25069;-61
2023/02/15 10:20:49;;;;;;;;;;;7.40;99.90;;;;;;4975204;28;25091;-62
2023/02/15 10:23:35;;;;;;;63.50;29.13;;;7.50;99.90;;;;;;4978821;28;25049;-60
2023/02/15 10:26:00;;;;;;;73.47;30.00;;;7.70;99.90;;;;;;4961226;28;25082;-59
2023/02/15 10:28:55;;;;;;;61.28;29.27;;;7.80;99.90;;;;;;4979291;28;25072;-60
2023/02/15 10:31:26;;;;;;;61.05;31.02;;;7.90;99.90;;;;;;4954529;28;25103;-59
2023/02/15 10:34:19;;;;;;;63.45;28.85;;;8.00;99.90;;;;;;4979846;28;25045;-60
2023/02/15 10:37:06;;;;;;;60.83;27.88;;;8.00;99.90;;;;;;4975286;28;25090;-61
2023/02/15 10:39:44;;;;;;;63.25;28.92;;;8.20;99.90;;;;;;4973435;28;25137;-60
2023/02/15 10:42:30;;;;;;;60.22;26.58;;;8.20;99.90;;;;;;4988504;28;25105;-60
2023/02/15 10:45:04;;;;;;;67.97;29.52;;;8.40;99.90;;;;;;4980319;28;25081;-59
2023/02/15 10:47:56;;;;;;;68.93;28.52;;;8.60;99.90;;;;;;4987712;28;25097;-61
2023/02/15 10:50:37;;;;;;;60.30;28.77;;;8.70;99.90;;;;;;4979139;28;25063;-61
2023/02/15 10:53:23;;;;;;;62.42;29.38;;;8.80;99.90;;;;;;4975800;28;25081;-61
2023/02/15 10:56:05;;;;;;;57.30;27.60;;;8.70;99.90;;;;;;4981207;28;25115;-60
2023/02/15 10:58:34;;;;;;;55.38;27.80;;;8.80;99.90;;;;;;4985390;28;25105;-61
2023/02/15 11:01:14;;;;;;;62.47;30.52;;;9.00;99.90;;;;;;4986932;28;25052;-61
2023/02/15 11:03:52;;;;;;;58.97;28.48;;;9.20;99.90;;;;;;4982746;28;25170;-60
2023/02/15 11:06:20;;;;;;;60.45;27.95;;;9.50;99.90;;;;;;4978819;28;25169;-61
2023/02/15 11:08:53;;;;;;;58.60;27.83;;;9.40;99.90;;;;;;4990445;28;25083;-61
2023/02/15 11:11:24;;;;;;;58.08;28.58;;;9.60;99.90;;;;;;4982157;28;25146;-61
2023/02/15 11:13:56;;;;;;;61.38;28.63;;;9.90;99.90;;;;;;4973273;28;25130;-60
2023/02/15 11:16:26;;;;;;;64.28;29.52;;;10.00;99.90;;;;;;4973121;28;25060;-60
2023/02/15 11:19:03;;;;;;;58.03;28.10;;;10.20;99.90;;;;;;4981892;28;25129;-61
2023/02/15 11:21:43;;;;;;;63.10;29.02;;;10.20;99.90;;;;;;4984385;28;25044;-61
2023/02/15 11:24:14;;;;;;;56.65;27.38;;;10.50;99.90;;;;;;4985593;28;25108;-61
2023/02/15 11:26:49;;;;;;;54.10;28.08;;;10.90;99.90;;;;;;4982324;28;24999;-62
2023/02/15 11:29:36;;;;;;;65.03;27.25;;;11.00;99.90;;;;;;4973035;28;25102;-60
2023/02/15 11:32:13;;;;;;;59.25;27.83;;;10.90;99.90;;;;;;4977259;28;25064;-60
2023/02/15 11:34:47;;;;;;;57.72;27.85;;;11.10;99.90;;;;;;4990039;28;25140;-61
2023/02/15 11:37:18;;;;;;;61.42;27.65;;;11.20;99.90;;;;;;4982822;28;25087;-61
2023/02/15 11:39:44;;;;;;;65.72;28.27;;;11.30;99.90;;;;;;4984279;28;25138;-60
2023/02/15 11:42:22;;;;;;;63.63;30.23;;;11.30;99.90;;;;;;4975878;28;25144;-60
2023/02/15 11:44:59;;;;;;;61.00;28.20;;;11.20;99.90;;;;;;4988316;28;25058;-60
2023/02/15 11:47:24;;;;;;;59.45;28.83;;;11.20;99.90;;;;;;4980366;28;25160;-60
2023/02/15 11:49:50;;;;;;;58.58;28.52;;;11.20;99.90;;;;;;4974130;28;25104;-62
2023/02/15 11:52:17;;;;;;;57.58;27.17;;;11.20;99.90;;;;;;4979934;28;25077;-62
2023/02/15 11:54:49;;;;;;;63.08;29.15;;;11.70;99.90;;;;;;4976507;28;25088;-61
2023/02/15 11:57:21;;;;;;;60.83;28.13;;;11.90;99.90;;;;;;4985362;28;25125;-61
2023/02/15 11:59:52;;;;;;;54.97;28.03;;;12.20;99.90;;;;;;4986571;28;25057;-60
2023/02/15 12:02:22;;;;;;;59.80;27.83;;;12.40;99.90;;;;;;4983650;28;25095;-62
2023/02/15 12:05:17;;;;;;;63.55;28.58;;;12.50;99.90;;;;;;4973145;28;25050;-61
2023/02/15 12:07:49;;;;;;;56.33;29.02;;;12.60;99.90;;;;;;4982401;28;25138;-62
2023/02/15 12:10:34;;;;;;;58.58;27.77;;;12.60;99.90;;;;;;4968841;28;25075;-62
2023/02/15 12:13:11;;;;;;;60.08;27.45;;;12.60;99.90;;;;;;4990611;28;25083;-61
2023/02/15 12:15:40;;;;;;;57.85;27.80;;;12.80;99.90;;;;;;4980695;28;25084;-61
2023/02/15 12:18:31;;;;;;;58.33;28.58;;;13.20;99.90;;;;;;4980944;28;25066;-61
2023/02/15 12:21:03;;;;;;;60.67;28.45;;;13.10;99.90;;;;;;4988134;28;25155;-63
2023/02/15 12:23:29;;;;;;;50.53;25.92;;;12.90;99.90;;;;;;4981161;28;25138;-63
2023/02/15 12:25:57;;;;;;;64.20;27.27;;;13.10;99.90;;;;;;4985443;28;25097;-62
2023/02/15 12:28:33;;;;;;;58.65;26.75;;;13.00;99.90;;;;;;4980568;28;25065;-63
2023/02/15 12:31:01;;;;;;;66.55;26.75;;;13.00;99.90;;;;;;4984324;28;25066;-62
2023/02/15 12:33:29;;;;;;;57.00;28.30;;;13.10;99.90;;;;;;4990737;28;25078;-61
2023/02/15 12:35:59;;;;;;;59.55;26.50;;;12.80;99.90;;;;;;4991995;28;25078;-63
2023/02/15 12:38:25;;;;;;;64.78;28.23;;;12.50;99.90;;;;;;4973971;28;25080;-61
2023/02/15 12:41:03;;;;;;;52.83;25.52;;;12.40;99.90;;;;;;4984855;28;25092;-60
2023/02/15 12:43:37;;;;;;;51.70;24.90;;;12.40;99.90;;;;;;4982937;28;25050;-61
2023/02/15 12:46:18;;;;;;;57.28;27.17;;;12.70;99.90;;;;;;4978708;28;25106;-61
2023/02/15 12:48:44;;;;;;;54.50;25.48;;;12.90;99.90;;;;;;4988891;28;25058;-61
2023/02/15 12:51:14;;;;;;;52.60;25.98;;;13.10;99.90;;;;;;4976707;28;25089;-62
2023/02/15 12:53:40;;;;;;;59.90;25.80;;;13.20;99.90;;;;;;4984875;28;25100;-61
2023/02/15 12:56:09;;;;;;;56.17;27.92;;;13.20;99.90;;;;;;4978424;28;25078;-63
2023/02/15 12:58:36;;;;;;;60.47;25.85;;;13.20;99.90;;;;;;4997620;28;25075;-61
2023/02/15 13:01:25;;;;;;;59.88;25.40;;;12.90;99.90;;;;;;4988679;28;25090;-62
2023/02/15 13:03:53;;;;;;;56.35;27.38;;;12.70;99.90;;;;;;4980476;28;25103;-62
2023/02/15 13:06:19;;;;;;;59.53;27.88;;;12.60;99.90;;;;;;4984117;28;25104;-63
2023/02/15 13:08:49;;;;;;;65.68;29.45;;;12.50;99.90;;;;;;4979839;28;25115;-62
2023/02/15 13:11:28;;;;;;;63.58;26.60;;;12.50;99.90;;;;;;4979595;28;25095;-62
2023/02/15 13:14:02;;;;;;;56.05;28.13;;;12.40;99.90;;;;;;4979734;28;25070;-61
2023/02/15 13:16:34;;;;;;;58.13;27.45;;;12.30;99.90;;;;;;4972638;28;25085;-61
2023/02/15 13:19:11;;;;;;;53.30;26.08;;;12.40;99.90;;;;;;4985667;28;25077;-61
2023/02/15 13:21:39;;;;;;;60.47;28.92;;;12.40;99.90;;;;;;4987633;28;25095;-60
2023/02/15 13:24:17;;;;;;;57.33;26.80;;;12.50;99.90;;;;;;4976895;28;25060;-63